sensor_id;sensor_type;location;lat;lon;timestamp;P1;durP1;ratioP1;P2;durP2;ratioP2
76318;SDS011;65131;48.894;8.422;2022-12-18T00:02:13;69.75;;;31.92;;
76318;SDS011;65131;48.894;8.422;2022-12-18T00:04:38;63.78;;;24.88;;
76318;SDS011;65131;48.894;8.422;2022-12-18T00:07:04;64.68;;;26.10;;
76318;SDS011;65131;48.894;8.422;2022-12-18T00:09:29;73.35;;;25.77;;
76318;SDS011;65131;48.894;8.422;2022-12-18T00:11:55;72.65;;;29.00;;
76318;SDS011;65131;48.894;8.422;2022-12-18T00:14:20;67.53;;;29.65;;
76318;SDS011;65131;48.894;8.422;2022-12-18T00:16:46;55.90;;;23.35;;
76318;SDS011;65131;48.894;8.422;2022-12-18T00:19:12;67.28;;;25.33;;
76318;SDS011;65131;48.894;8.422;2022-12-18T00:21:41;46.03;;;20.20;;
76318;SDS011;65131;48.894;8.422;2022-12-18T00:24:08;58.95;;;22.85;;
76318;SDS011;65131;48.894;8.422;2022-12-18T00:26:35;64.50;;;23.98;;
76318;SDS011;65131;48.894;8.422;2022-12-18T00:29:09;58.85;;;22.73;;
76318;SDS011;65131;48.894;8.422;2022-12-18T00:31:37;48.00;;;20.10;;
76318;SDS011;65131;48.894;8.422;2022-12-18T00:34:02;56.97;;;21.13;;
76318;SDS011;65131;48.894;8.422;2022-12-18T00:36:29;54.25;;;23.25;;
76318;SDS011;65131;48.894;8.422;2022-12-18T00:38:57;53.13;;;20.65;;
76318;SDS011;65131;48.894;8.422;2022-12-18T00:41:24;55.67;;;21.25;;
76318;SDS011;65131;48.894;8.422;2022-12-18T00:44:09;62.05;;;23.30;;
76318;SDS011;65131;48.894;8.422;2022-12-18T00:46:37;53.75;;;22.20;;
76318;SDS011;65131;48.894;8.422;2022-12-18T00:49:02;54.95;;;21.30;;
76318;SDS011;65131;48.894;8.422;2022-12-18T00:51:28;56.58;;;23.92;;
76318;SDS011;65131;48.894;8.422;2022-12-18T00:53:54;49.15;;;19.40;;
76318;SDS011;65131;48.894;8.422;2022-12-18T00:56:23;59.95;;;22.35;;
76318;SDS011;65131;48.894;8.422;2022-12-18T00:58:49;52.70;;;21.90;;
76318;SDS011;65131;48.894;8.422;2022-12-18T01:01:14;59.40;;;22.45;;
76318;SDS011;65131;48.894;8.422;2022-12-18T01:03:40;61.67;;;23.38;;
76318;SDS011;65131;48.894;8.422;2022-12-18T01:06:09;52.83;;;21.80;;
76318;SDS011;65131;48.894;8.422;2022-12-18T01:08:36;59.72;;;21.70;;
76318;SDS011;65131;48.894;8.422;2022-12-18T01:11:09;65.22;;;25.05;;
76318;SDS011;65131;48.894;8.422;2022-12-18T01:13:37;55.70;;;23.42;;
76318;SDS011;65131;48.894;8.422;2022-12-18T01:16:03;52.10;;;21.38;;
76318;SDS011;65131;48.894;8.422;2022-12-18T01:18:28;63.97;;;23.92;;
76318;SDS011;65131;48.894;8.422;2022-12-18T01:20:56;42.72;;;19.77;;
76318;SDS011;65131;48.894;8.422;2022-12-18T01:23:22;56.30;;;23.10;;
76318;SDS011;65131;48.894;8.422;2022-12-18T01:25:47;54.50;;;23.25;;
76318;SDS011;65131;48.894;8.422;2022-12-18T01:28:13;59.60;;;24.17;;
76318;SDS011;65131;48.894;8.422;2022-12-18T01:30:39;63.67;;;21.17;;
76318;SDS011;65131;48.894;8.422;2022-12-18T01:33:05;67.57;;;23.30;;
76318;SDS011;65131;48.894;8.422;2022-12-18T01:35:30;51.65;;;21.80;;
76318;SDS011;65131;48.894;8.422;2022-12-18T01:37:56;52.00;;;20.00;;
76318;SDS011;65131;48.894;8.422;2022-12-18T01:40:22;48.90;;;21.15;;
76318;SDS011;65131;48.894;8.422;2022-12-18T01:42:53;56.42;;;21.88;;
76318;SDS011;65131;48.894;8.422;2022-12-18T01:45:23;45.17;;;19.65;;
76318;SDS011;65131;48.894;8.422;2022-12-18T01:47:53;50.20;;;18.65;;
76318;SDS011;65131;48.894;8.422;2022-12-18T01:50:31;43.30;;;18.30;;
76318;SDS011;65131;48.894;8.422;2022-12-18T01:53:21;41.00;;;17.77;;
76318;SDS011;65131;48.894;8.422;2022-12-18T01:55:47;50.70;;;17.80;;
76318;SDS011;65131;48.894;8.422;2022-12-18T01:58:14;55.53;;;21.45;;
76318;SDS011;65131;48.894;8.422;2022-12-18T02:00:40;35.92;;;15.82;;
76318;SDS011;65131;48.894;8.422;2022-12-18T02:03:06;42.10;;;16.27;;
76318;SDS011;65131;48.894;8.422;2022-12-18T02:05:45;47.47;;;16.23;;
76318;SDS011;65131;48.894;8.422;2022-12-18T02:13:27;43.90;;;17.85;;
76318;SDS011;65131;48.894;8.422;2022-12-18T02:18:59;44.17;;;17.42;;
76318;SDS011;65131;48.894;8.422;2022-12-18T02:21:29;43.60;;;16.98;;
76318;SDS011;65131;48.894;8.422;2022-12-18T02:24:17;42.20;;;18.20;;
76318;SDS011;65131;48.894;8.422;2022-12-18T02:27:04;41.92;;;16.85;;
76318;SDS011;65131;48.894;8.422;2022-12-18T02:29:39;48.67;;;18.60;;
76318;SDS011;65131;48.894;8.422;2022-12-18T02:32:10;41.03;;;15.88;;
76318;SDS011;65131;48.894;8.422;2022-12-18T02:34:39;46.22;;;16.23;;
76318;SDS011;65131;48.894;8.422;2022-12-18T02:37:11;37.38;;;16.00;;
76318;SDS011;65131;48.894;8.422;2022-12-18T02:39:41;34.40;;;14.80;;
76318;SDS011;65131;48.894;8.422;2022-12-18T02:42:10;38.92;;;14.70;;
76318;SDS011;65131;48.894;8.422;2022-12-18T02:44:43;37.13;;;15.43;;
76318;SDS011;65131;48.894;8.422;2022-12-18T02:47:18;33.47;;;15.68;;
76318;SDS011;65131;48.894;8.422;2022-12-18T02:52:40;40.63;;;15.60;;
76318;SDS011;65131;48.894;8.422;2022-12-18T02:58:16;43.38;;;16.45;;
76318;SDS011;65131;48.894;8.422;2022-12-18T03:00:56;46.30;;;18.02;;
76318;SDS011;65131;48.894;8.422;2022-12-18T03:03:29;42.88;;;17.17;;
76318;SDS011;65131;48.894;8.422;2022-12-18T03:06:04;45.17;;;16.83;;
76318;SDS011;65131;48.894;8.422;2022-12-18T03:08:34;40.63;;;14.90;;
76318;SDS011;65131;48.894;8.422;2022-12-18T03:11:04;40.10;;;14.63;;
76318;SDS011;65131;48.894;8.422;2022-12-18T03:13:37;37.30;;;16.02;;
76318;SDS011;65131;48.894;8.422;2022-12-18T03:16:12;40.55;;;15.85;;
76318;SDS011;65131;48.894;8.422;2022-12-18T03:21:12;44.35;;;17.67;;
76318;SDS011;65131;48.894;8.422;2022-12-18T03:23:44;45.45;;;17.38;;
76318;SDS011;65131;48.894;8.422;2022-12-18T03:26:14;37.63;;;14.93;;
76318;SDS011;65131;48.894;8.422;2022-12-18T03:28:46;43.45;;;14.73;;
76318;SDS011;65131;48.894;8.422;2022-12-18T03:31:14;37.92;;;15.15;;
76318;SDS011;65131;48.894;8.422;2022-12-18T03:36:31;37.83;;;14.43;;
76318;SDS011;65131;48.894;8.422;2022-12-18T03:38:57;33.20;;;13.63;;
76318;SDS011;65131;48.894;8.422;2022-12-18T03:41:31;30.35;;;14.48;;
76318;SDS011;65131;48.894;8.422;2022-12-18T03:49:50;32.13;;;12.60;;
76318;SDS011;65131;48.894;8.422;2022-12-18T03:52:48;34.60;;;12.38;;
76318;SDS011;65131;48.894;8.422;2022-12-18T03:55:18;27.55;;;13.02;;
76318;SDS011;65131;48.894;8.422;2022-12-18T03:57:48;27.52;;;12.80;;
76318;SDS011;65131;48.894;8.422;2022-12-18T04:00:14;28.73;;;12.50;;
76318;SDS011;65131;48.894;8.422;2022-12-18T04:02:52;32.45;;;12.43;;
76318;SDS011;65131;48.894;8.422;2022-12-18T04:05:26;28.83;;;12.40;;
76318;SDS011;65131;48.894;8.422;2022-12-18T04:07:52;27.88;;;13.13;;
76318;SDS011;65131;48.894;8.422;2022-12-18T04:10:20;32.60;;;12.30;;
76318;SDS011;65131;48.894;8.422;2022-12-18T04:12:46;34.33;;;12.52;;
76318;SDS011;65131;48.894;8.422;2022-12-18T04:15:13;31.02;;;13.48;;
76318;SDS011;65131;48.894;8.422;2022-12-18T04:17:39;31.83;;;12.95;;
76318;SDS011;65131;48.894;8.422;2022-12-18T04:20:13;36.38;;;12.50;;
76318;SDS011;65131;48.894;8.422;2022-12-18T04:22:42;30.02;;;11.95;;
76318;SDS011;65131;48.894;8.422;2022-12-18T04:25:07;26.95;;;11.88;;
76318;SDS011;65131;48.894;8.422;2022-12-18T04:27:40;32.15;;;14.07;;
76318;SDS011;65131;48.894;8.422;2022-12-18T04:30:07;31.50;;;13.10;;
76318;SDS011;65131;48.894;8.422;2022-12-18T04:32:34;29.23;;;11.32;;
76318;SDS011;65131;48.894;8.422;2022-12-18T04:34:59;30.63;;;11.20;;
76318;SDS011;65131;48.894;8.422;2022-12-18T04:37:25;31.90;;;12.30;;
76318;SDS011;65131;48.894;8.422;2022-12-18T04:39:51;25.42;;;11.10;;
76318;SDS011;65131;48.894;8.422;2022-12-18T04:42:24;29.15;;;11.45;;
76318;SDS011;65131;48.894;8.422;2022-12-18T04:44:49;36.40;;;13.25;;
76318;SDS011;65131;48.894;8.422;2022-12-18T04:47:15;32.60;;;11.75;;
76318;SDS011;65131;48.894;8.422;2022-12-18T04:49:40;35.28;;;13.68;;
76318;SDS011;65131;48.894;8.422;2022-12-18T04:52:09;30.50;;;11.15;;
76318;SDS011;65131;48.894;8.422;2022-12-18T04:54:34;30.50;;;12.60;;
76318;SDS011;65131;48.894;8.422;2022-12-18T04:57:00;32.42;;;12.75;;
76318;SDS011;65131;48.894;8.422;2022-12-18T04:59:25;32.97;;;12.70;;
76318;SDS011;65131;48.894;8.422;2022-12-18T05:01:51;28.38;;;12.55;;
76318;SDS011;65131;48.894;8.422;2022-12-18T05:04:17;33.38;;;11.20;;
76318;SDS011;65131;48.894;8.422;2022-12-18T05:06:43;37.30;;;13.25;;
76318;SDS011;65131;48.894;8.422;2022-12-18T05:09:09;28.08;;;11.75;;
76318;SDS011;65131;48.894;8.422;2022-12-18T05:11:37;35.13;;;12.68;;
76318;SDS011;65131;48.894;8.422;2022-12-18T05:14:03;37.60;;;13.13;;
76318;SDS011;65131;48.894;8.422;2022-12-18T05:16:28;39.17;;;15.02;;
76318;SDS011;65131;48.894;8.422;2022-12-18T05:18:54;42.38;;;15.35;;
76318;SDS011;65131;48.894;8.422;2022-12-18T05:21:19;45.20;;;16.02;;
76318;SDS011;65131;48.894;8.422;2022-12-18T05:23:45;38.58;;;14.98;;
76318;SDS011;65131;48.894;8.422;2022-12-18T05:26:12;47.20;;;15.13;;
76318;SDS011;65131;48.894;8.422;2022-12-18T05:28:40;45.83;;;16.13;;
76318;SDS011;65131;48.894;8.422;2022-12-18T05:31:06;32.35;;;13.18;;
76318;SDS011;65131;48.894;8.422;2022-12-18T05:33:32;36.28;;;12.63;;
76318;SDS011;65131;48.894;8.422;2022-12-18T05:36:02;40.72;;;13.20;;
76318;SDS011;65131;48.894;8.422;2022-12-18T05:38:30;36.08;;;12.40;;
76318;SDS011;65131;48.894;8.422;2022-12-18T05:40:56;34.83;;;13.10;;
76318;SDS011;65131;48.894;8.422;2022-12-18T05:43:23;32.20;;;12.82;;
76318;SDS011;65131;48.894;8.422;2022-12-18T05:45:50;32.40;;;12.85;;
76318;SDS011;65131;48.894;8.422;2022-12-18T05:48:16;41.92;;;13.30;;
76318;SDS011;65131;48.894;8.422;2022-12-18T05:50:42;37.72;;;13.50;;
76318;SDS011;65131;48.894;8.422;2022-12-18T05:53:11;31.67;;;11.68;;
76318;SDS011;65131;48.894;8.422;2022-12-18T05:55:37;29.67;;;12.90;;
76318;SDS011;65131;48.894;8.422;2022-12-18T05:58:04;31.40;;;12.15;;
76318;SDS011;65131;48.894;8.422;2022-12-18T06:00:31;31.65;;;12.15;;
76318;SDS011;65131;48.894;8.422;2022-12-18T06:02:58;34.85;;;13.65;;
76318;SDS011;65131;48.894;8.422;2022-12-18T06:05:24;37.20;;;13.23;;
76318;SDS011;65131;48.894;8.422;2022-12-18T06:07:50;30.58;;;13.45;;
76318;SDS011;65131;48.894;8.422;2022-12-18T06:10:15;24.33;;;9.82;;
76318;SDS011;65131;48.894;8.422;2022-12-18T06:12:41;34.05;;;10.98;;
76318;SDS011;65131;48.894;8.422;2022-12-18T06:15:06;28.70;;;12.20;;
76318;SDS011;65131;48.894;8.422;2022-12-18T06:17:32;30.75;;;12.32;;
76318;SDS011;65131;48.894;8.422;2022-12-18T06:19:58;32.63;;;12.23;;
76318;SDS011;65131;48.894;8.422;2022-12-18T06:22:24;32.53;;;13.75;;
76318;SDS011;65131;48.894;8.422;2022-12-18T06:24:49;32.25;;;11.85;;
76318;SDS011;65131;48.894;8.422;2022-12-18T06:27:15;29.27;;;11.75;;
76318;SDS011;65131;48.894;8.422;2022-12-18T06:29:41;34.55;;;14.55;;
76318;SDS011;65131;48.894;8.422;2022-12-18T06:32:06;31.67;;;11.70;;
76318;SDS011;65131;48.894;8.422;2022-12-18T06:34:32;29.60;;;12.02;;
76318;SDS011;65131;48.894;8.422;2022-12-18T06:36:58;38.58;;;13.07;;
76318;SDS011;65131;48.894;8.422;2022-12-18T06:39:24;31.83;;;12.57;;
76318;SDS011;65131;48.894;8.422;2022-12-18T06:41:49;37.17;;;13.13;;
76318;SDS011;65131;48.894;8.422;2022-12-18T06:44:15;35.63;;;13.00;;
76318;SDS011;65131;48.894;8.422;2022-12-18T06:46:41;34.45;;;11.13;;
76318;SDS011;65131;48.894;8.422;2022-12-18T06:49:06;36.35;;;14.00;;
76318;SDS011;65131;48.894;8.422;2022-12-18T06:51:34;33.50;;;12.60;;
76318;SDS011;65131;48.894;8.422;2022-12-18T06:53:59;42.65;;;13.55;;
76318;SDS011;65131;48.894;8.422;2022-12-18T06:56:25;28.20;;;12.25;;
76318;SDS011;65131;48.894;8.422;2022-12-18T06:58:50;41.30;;;15.63;;
76318;SDS011;65131;48.894;8.422;2022-12-18T07:01:16;50.30;;;16.63;;
76318;SDS011;65131;48.894;8.422;2022-12-18T07:03:41;56.70;;;17.90;;
76318;SDS011;65131;48.894;8.422;2022-12-18T07:06:17;40.75;;;15.18;;
76318;SDS011;65131;48.894;8.422;2022-12-18T07:08:44;41.05;;;13.95;;
76318;SDS011;65131;48.894;8.422;2022-12-18T07:11:10;31.52;;;13.13;;
76318;SDS011;65131;48.894;8.422;2022-12-18T07:13:36;25.55;;;10.55;;
76318;SDS011;65131;48.894;8.422;2022-12-18T07:16:05;34.25;;;12.18;;
76318;SDS011;65131;48.894;8.422;2022-12-18T07:18:49;33.17;;;11.10;;
76318;SDS011;65131;48.894;8.422;2022-12-18T07:21:15;37.50;;;15.80;;
76318;SDS011;65131;48.894;8.422;2022-12-18T07:23:42;38.05;;;14.65;;
76318;SDS011;65131;48.894;8.422;2022-12-18T07:26:10;29.08;;;12.98;;
76318;SDS011;65131;48.894;8.422;2022-12-18T07:28:37;27.95;;;11.73;;
76318;SDS011;65131;48.894;8.422;2022-12-18T07:31:04;47.20;;;16.63;;
76318;SDS011;65131;48.894;8.422;2022-12-18T07:33:31;46.47;;;14.52;;
76318;SDS011;65131;48.894;8.422;2022-12-18T07:35:58;39.80;;;12.57;;
76318;SDS011;65131;48.894;8.422;2022-12-18T07:38:24;37.00;;;14.40;;
76318;SDS011;65131;48.894;8.422;2022-12-18T07:40:49;40.38;;;14.52;;
76318;SDS011;65131;48.894;8.422;2022-12-18T07:43:15;34.97;;;12.30;;
76318;SDS011;65131;48.894;8.422;2022-12-18T07:45:41;42.60;;;14.95;;
76318;SDS011;65131;48.894;8.422;2022-12-18T07:48:07;35.85;;;13.20;;
76318;SDS011;65131;48.894;8.422;2022-12-18T07:50:32;44.53;;;16.50;;
76318;SDS011;65131;48.894;8.422;2022-12-18T07:52:58;81.18;;;32.17;;
76318;SDS011;65131;48.894;8.422;2022-12-18T07:55:23;49.65;;;16.10;;
76318;SDS011;65131;48.894;8.422;2022-12-18T07:57:49;59.00;;;18.60;;
76318;SDS011;65131;48.894;8.422;2022-12-18T08:00:14;58.15;;;20.38;;
76318;SDS011;65131;48.894;8.422;2022-12-18T08:02:41;59.75;;;19.35;;
76318;SDS011;65131;48.894;8.422;2022-12-18T08:05:06;55.88;;;17.77;;
76318;SDS011;65131;48.894;8.422;2022-12-18T08:07:32;60.58;;;19.40;;
76318;SDS011;65131;48.894;8.422;2022-12-18T08:09:58;44.33;;;13.75;;
76318;SDS011;65131;48.894;8.422;2022-12-18T08:12:23;46.05;;;14.68;;
76318;SDS011;65131;48.894;8.422;2022-12-18T08:14:49;42.30;;;14.23;;
76318;SDS011;65131;48.894;8.422;2022-12-18T08:17:14;47.38;;;15.38;;
76318;SDS011;65131;48.894;8.422;2022-12-18T08:19:40;45.05;;;17.02;;
76318;SDS011;65131;48.894;8.422;2022-12-18T08:22:05;47.05;;;16.33;;
76318;SDS011;65131;48.894;8.422;2022-12-18T08:24:31;46.25;;;14.65;;
76318;SDS011;65131;48.894;8.422;2022-12-18T08:26:56;40.47;;;14.25;;
76318;SDS011;65131;48.894;8.422;2022-12-18T08:29:22;39.15;;;14.70;;
76318;SDS011;65131;48.894;8.422;2022-12-18T08:31:48;38.60;;;14.18;;
76318;SDS011;65131;48.894;8.422;2022-12-18T08:34:13;34.97;;;13.48;;
76318;SDS011;65131;48.894;8.422;2022-12-18T08:36:39;32.65;;;11.98;;
76318;SDS011;65131;48.894;8.422;2022-12-18T08:39:05;40.22;;;11.30;;
76318;SDS011;65131;48.894;8.422;2022-12-18T08:41:30;28.58;;;11.38;;
76318;SDS011;65131;48.894;8.422;2022-12-18T08:43:56;32.38;;;11.75;;
76318;SDS011;65131;48.894;8.422;2022-12-18T08:46:42;31.55;;;10.88;;
76318;SDS011;65131;48.894;8.422;2022-12-18T08:49:09;28.40;;;10.68;;
76318;SDS011;65131;48.894;8.422;2022-12-18T08:51:35;24.65;;;10.77;;
76318;SDS011;65131;48.894;8.422;2022-12-18T08:54:01;34.70;;;12.55;;
76318;SDS011;65131;48.894;8.422;2022-12-18T08:56:27;30.77;;;12.48;;
76318;SDS011;65131;48.894;8.422;2022-12-18T08:58:53;46.95;;;14.43;;
76318;SDS011;65131;48.894;8.422;2022-12-18T09:01:19;44.47;;;14.25;;
76318;SDS011;65131;48.894;8.422;2022-12-18T09:03:48;41.88;;;15.00;;
76318;SDS011;65131;48.894;8.422;2022-12-18T09:06:15;50.55;;;16.30;;
76318;SDS011;65131;48.894;8.422;2022-12-18T09:08:42;54.25;;;15.93;;
76318;SDS011;65131;48.894;8.422;2022-12-18T09:11:13;41.30;;;15.85;;
76318;SDS011;65131;48.894;8.422;2022-12-18T09:13:40;54.10;;;18.55;;
76318;SDS011;65131;48.894;8.422;2022-12-18T09:16:05;50.05;;;18.42;;
76318;SDS011;65131;48.894;8.422;2022-12-18T09:18:31;58.70;;;17.75;;
76318;SDS011;65131;48.894;8.422;2022-12-18T09:20:56;56.38;;;20.33;;
76318;SDS011;65131;48.894;8.422;2022-12-18T09:23:22;65.60;;;24.50;;
76318;SDS011;65131;48.894;8.422;2022-12-18T09:25:48;69.78;;;22.85;;
76318;SDS011;65131;48.894;8.422;2022-12-18T09:28:16;54.75;;;21.17;;
76318;SDS011;65131;48.894;8.422;2022-12-18T09:30:44;55.88;;;23.98;;
76318;SDS011;65131;48.894;8.422;2022-12-18T09:33:11;60.33;;;26.23;;
76318;SDS011;65131;48.894;8.422;2022-12-18T09:35:37;70.43;;;30.10;;
76318;SDS011;65131;48.894;8.422;2022-12-18T09:38:03;64.43;;;29.23;;
76318;SDS011;65131;48.894;8.422;2022-12-18T09:40:32;67.72;;;30.33;;
76318;SDS011;65131;48.894;8.422;2022-12-18T09:43:05;58.58;;;25.02;;
76318;SDS011;65131;48.894;8.422;2022-12-18T09:45:42;53.58;;;23.55;;
76318;SDS011;65131;48.894;8.422;2022-12-18T09:48:15;55.58;;;24.48;;
76318;SDS011;65131;48.894;8.422;2022-12-18T09:50:44;52.72;;;24.08;;
76318;SDS011;65131;48.894;8.422;2022-12-18T09:53:12;64.75;;;28.08;;
76318;SDS011;65131;48.894;8.422;2022-12-18T09:55:41;64.88;;;28.55;;
76318;SDS011;65131;48.894;8.422;2022-12-18T09:58:17;61.28;;;29.45;;
76318;SDS011;65131;48.894;8.422;2022-12-18T10:00:53;63.17;;;28.77;;
76318;SDS011;65131;48.894;8.422;2022-12-18T10:03:20;58.92;;;27.13;;
76318;SDS011;65131;48.894;8.422;2022-12-18T10:19:29;56.75;;;25.25;;
76318;SDS011;65131;48.894;8.422;2022-12-18T10:22:09;62.67;;;26.67;;
76318;SDS011;65131;48.894;8.422;2022-12-18T10:27:29;63.55;;;27.27;;
76318;SDS011;65131;48.894;8.422;2022-12-18T10:29:56;75.28;;;28.45;;
76318;SDS011;65131;48.894;8.422;2022-12-18T10:32:23;81.13;;;33.25;;
76318;SDS011;65131;48.894;8.422;2022-12-18T10:34:54;66.63;;;28.67;;
76318;SDS011;65131;48.894;8.422;2022-12-18T10:37:22;57.78;;;23.67;;
76318;SDS011;65131;48.894;8.422;2022-12-18T10:40:06;64.10;;;23.63;;
76318;SDS011;65131;48.894;8.422;2022-12-18T10:42:34;59.60;;;23.58;;
76318;SDS011;65131;48.894;8.422;2022-12-18T10:45:05;59.15;;;25.52;;
76318;SDS011;65131;48.894;8.422;2022-12-18T10:47:42;58.92;;;26.45;;
76318;SDS011;65131;48.894;8.422;2022-12-18T10:50:19;60.97;;;25.80;;
76318;SDS011;65131;48.894;8.422;2022-12-18T10:52:55;52.60;;;23.45;;
76318;SDS011;65131;48.894;8.422;2022-12-18T10:55:23;61.95;;;26.42;;
76318;SDS011;65131;48.894;8.422;2022-12-18T10:57:52;72.75;;;31.13;;
76318;SDS011;65131;48.894;8.422;2022-12-18T11:00:20;75.68;;;35.55;;
76318;SDS011;65131;48.894;8.422;2022-12-18T11:02:48;80.38;;;35.10;;
76318;SDS011;65131;48.894;8.422;2022-12-18T11:07:56;64.10;;;27.98;;
76318;SDS011;65131;48.894;8.422;2022-12-18T11:10:25;52.97;;;24.48;;
76318;SDS011;65131;48.894;8.422;2022-12-18T11:12:53;59.55;;;26.45;;
76318;SDS011;65131;48.894;8.422;2022-12-18T11:15:20;56.65;;;22.58;;
76318;SDS011;65131;48.894;8.422;2022-12-18T11:17:47;55.90;;;25.10;;
76318;SDS011;65131;48.894;8.422;2022-12-18T11:20:26;62.00;;;26.52;;
76318;SDS011;65131;48.894;8.422;2022-12-18T11:22:56;58.53;;;25.65;;
76318;SDS011;65131;48.894;8.422;2022-12-18T11:25:23;57.28;;;25.63;;
76318;SDS011;65131;48.894;8.422;2022-12-18T11:27:53;56.35;;;26.30;;
76318;SDS011;65131;48.894;8.422;2022-12-18T11:30:25;55.00;;;24.63;;
76318;SDS011;65131;48.894;8.422;2022-12-18T11:33:05;52.78;;;24.38;;
76318;SDS011;65131;48.894;8.422;2022-12-18T11:35:37;57.80;;;26.35;;
76318;SDS011;65131;48.894;8.422;2022-12-18T11:38:25;62.95;;;26.98;;
76318;SDS011;65131;48.894;8.422;2022-12-18T11:40:57;57.70;;;24.83;;
76318;SDS011;65131;48.894;8.422;2022-12-18T11:46:11;56.83;;;24.80;;
76318;SDS011;65131;48.894;8.422;2022-12-18T11:53:40;53.42;;;22.70;;
76318;SDS011;65131;48.894;8.422;2022-12-18T11:56:11;55.05;;;23.13;;
76318;SDS011;65131;48.894;8.422;2022-12-18T12:04:44;54.28;;;23.95;;
76318;SDS011;65131;48.894;8.422;2022-12-18T12:07:17;52.63;;;21.20;;
76318;SDS011;65131;48.894;8.422;2022-12-18T12:15:21;62.63;;;22.23;;
76318;SDS011;65131;48.894;8.422;2022-12-18T12:17:54;55.75;;;22.35;;
76318;SDS011;65131;48.894;8.422;2022-12-18T12:20:23;52.33;;;21.55;;
76318;SDS011;65131;48.894;8.422;2022-12-18T12:26:02;54.00;;;22.50;;
76318;SDS011;65131;48.894;8.422;2022-12-18T12:28:39;58.67;;;22.77;;
76318;SDS011;65131;48.894;8.422;2022-12-18T12:31:14;52.58;;;20.33;;
76318;SDS011;65131;48.894;8.422;2022-12-18T12:39:47;52.95;;;20.83;;
76318;SDS011;65131;48.894;8.422;2022-12-18T12:45:06;58.70;;;22.63;;
76318;SDS011;65131;48.894;8.422;2022-12-18T12:47:40;62.05;;;22.70;;
76318;SDS011;65131;48.894;8.422;2022-12-18T12:50:12;66.80;;;28.08;;
76318;SDS011;65131;48.894;8.422;2022-12-18T12:52:42;68.07;;;27.60;;
76318;SDS011;65131;48.894;8.422;2022-12-18T12:55:19;60.30;;;25.48;;
76318;SDS011;65131;48.894;8.422;2022-12-18T12:57:53;69.25;;;26.40;;
76318;SDS011;65131;48.894;8.422;2022-12-18T13:00:23;57.58;;;23.95;;
76318;SDS011;65131;48.894;8.422;2022-12-18T13:03:07;65.50;;;25.35;;
76318;SDS011;65131;48.894;8.422;2022-12-18T13:08:24;56.33;;;23.52;;
76318;SDS011;65131;48.894;8.422;2022-12-18T13:10:51;71.50;;;26.40;;
76318;SDS011;65131;48.894;8.422;2022-12-18T13:13:53;63.03;;;25.45;;
76318;SDS011;65131;48.894;8.422;2022-12-18T13:16:23;64.85;;;24.35;;
76318;SDS011;65131;48.894;8.422;2022-12-18T13:18:54;59.65;;;22.80;;
76318;SDS011;65131;48.894;8.422;2022-12-18T13:21:24;65.60;;;25.45;;
76318;SDS011;65131;48.894;8.422;2022-12-18T13:23:52;63.50;;;25.75;;
76318;SDS011;65131;48.894;8.422;2022-12-18T13:34:19;53.45;;;21.52;;
76318;SDS011;65131;48.894;8.422;2022-12-18T13:41:44;66.63;;;25.85;;
76318;SDS011;65131;48.894;8.422;2022-12-18T13:44:12;62.78;;;24.27;;
76318;SDS011;65131;48.894;8.422;2022-12-18T13:46:44;57.90;;;24.27;;
76318;SDS011;65131;48.894;8.422;2022-12-18T13:52:00;63.97;;;24.73;;
76318;SDS011;65131;48.894;8.422;2022-12-18T13:54:28;58.90;;;23.25;;
76318;SDS011;65131;48.894;8.422;2022-12-18T13:56:57;56.33;;;21.15;;
76318;SDS011;65131;48.894;8.422;2022-12-18T13:59:41;61.22;;;22.38;;
76318;SDS011;65131;48.894;8.422;2022-12-18T14:02:14;54.30;;;22.10;;
76318;SDS011;65131;48.894;8.422;2022-12-18T14:04:40;58.72;;;22.27;;
76318;SDS011;65131;48.894;8.422;2022-12-18T14:07:19;53.50;;;20.90;;
76318;SDS011;65131;48.894;8.422;2022-12-18T14:09:51;66.63;;;25.05;;
76318;SDS011;65131;48.894;8.422;2022-12-18T14:12:19;52.60;;;20.38;;
76318;SDS011;65131;48.894;8.422;2022-12-18T14:15:17;55.35;;;23.20;;
76318;SDS011;65131;48.894;8.422;2022-12-18T14:17:49;53.55;;;22.45;;
76318;SDS011;65131;48.894;8.422;2022-12-18T14:20:15;58.88;;;24.80;;
76318;SDS011;65131;48.894;8.422;2022-12-18T14:22:46;58.38;;;22.90;;
76318;SDS011;65131;48.894;8.422;2022-12-18T14:27:44;55.28;;;21.52;;
76318;SDS011;65131;48.894;8.422;2022-12-18T14:30:22;55.35;;;22.38;;
76318;SDS011;65131;48.894;8.422;2022-12-18T14:35:54;61.83;;;21.45;;
76318;SDS011;65131;48.894;8.422;2022-12-18T14:38:34;61.35;;;22.85;;
76318;SDS011;65131;48.894;8.422;2022-12-18T14:41:02;62.67;;;21.92;;
76318;SDS011;65131;48.894;8.422;2022-12-18T14:43:31;57.45;;;21.25;;
76318;SDS011;65131;48.894;8.422;2022-12-18T14:45:58;54.58;;;21.25;;
76318;SDS011;65131;48.894;8.422;2022-12-18T14:48:35;53.35;;;20.92;;
76318;SDS011;65131;48.894;8.422;2022-12-18T14:53:44;56.25;;;20.67;;
76318;SDS011;65131;48.894;8.422;2022-12-18T14:58:46;55.53;;;22.73;;
76318;SDS011;65131;48.894;8.422;2022-12-18T15:01:33;52.75;;;20.25;;
76318;SDS011;65131;48.894;8.422;2022-12-18T15:04:03;56.15;;;23.90;;
76318;SDS011;65131;48.894;8.422;2022-12-18T15:06:31;47.40;;;20.33;;
76318;SDS011;65131;48.894;8.422;2022-12-18T15:08:59;58.63;;;20.75;;
76318;SDS011;65131;48.894;8.422;2022-12-18T15:11:34;59.03;;;21.95;;
76318;SDS011;65131;48.894;8.422;2022-12-18T15:16:54;54.58;;;20.70;;
76318;SDS011;65131;48.894;8.422;2022-12-18T15:19:20;62.13;;;23.00;;
76318;SDS011;65131;48.894;8.422;2022-12-18T15:21:46;56.00;;;21.38;;
76318;SDS011;65131;48.894;8.422;2022-12-18T15:24:26;53.38;;;21.88;;
76318;SDS011;65131;48.894;8.422;2022-12-18T15:26:54;60.72;;;24.73;;
76318;SDS011;65131;48.894;8.422;2022-12-18T15:29:21;66.53;;;24.38;;
76318;SDS011;65131;48.894;8.422;2022-12-18T15:32:03;56.63;;;24.20;;
76318;SDS011;65131;48.894;8.422;2022-12-18T15:34:30;66.88;;;24.85;;
76318;SDS011;65131;48.894;8.422;2022-12-18T15:36:56;68.32;;;25.05;;
76318;SDS011;65131;48.894;8.422;2022-12-18T15:39:22;67.40;;;26.85;;
76318;SDS011;65131;48.894;8.422;2022-12-18T15:41:48;64.93;;;28.23;;
76318;SDS011;65131;48.894;8.422;2022-12-18T15:44:32;70.45;;;24.27;;
76318;SDS011;65131;48.894;8.422;2022-12-18T15:46:57;71.53;;;26.33;;
76318;SDS011;65131;48.894;8.422;2022-12-18T15:49:23;72.55;;;24.08;;
76318;SDS011;65131;48.894;8.422;2022-12-18T15:51:50;61.50;;;24.38;;
76318;SDS011;65131;48.894;8.422;2022-12-18T15:54:17;61.80;;;24.20;;
76318;SDS011;65131;48.894;8.422;2022-12-18T15:57:02;68.05;;;24.73;;
76318;SDS011;65131;48.894;8.422;2022-12-18T15:59:47;58.47;;;22.83;;
76318;SDS011;65131;48.894;8.422;2022-12-18T16:02:15;56.85;;;23.60;;
76318;SDS011;65131;48.894;8.422;2022-12-18T16:04:42;64.60;;;23.27;;
76318;SDS011;65131;48.894;8.422;2022-12-18T16:07:08;67.43;;;23.20;;
76318;SDS011;65131;48.894;8.422;2022-12-18T16:09:34;69.78;;;24.00;;
76318;SDS011;65131;48.894;8.422;2022-12-18T16:11:59;66.40;;;25.33;;
76318;SDS011;65131;48.894;8.422;2022-12-18T16:14:26;68.82;;;24.95;;
76318;SDS011;65131;48.894;8.422;2022-12-18T16:16:54;68.80;;;24.92;;
76318;SDS011;65131;48.894;8.422;2022-12-18T16:19:22;66.43;;;25.30;;
76318;SDS011;65131;48.894;8.422;2022-12-18T16:21:48;61.00;;;24.02;;